Time;durP1;ratioP1;P1;durP2;ratioP2;P2;SDS_P1;SDS_P2;PMS_P1;PMS_P2;Temp;Humidity;BMP_temperature;BMP_pressure;BME280_temperature;BME280_humidity;BME280_pressure;Samples;Min_cycle;Max_cycle;Signal;HPM_P1;HPM_P2
2022/12/26 00:01:43;;;;;;;;;;;;;;;;;;5080555;28;20038;-64
2022/12/26 00:04:08;;;;;;;;;;;;;;;;;;5071027;28;19916;-63
2022/12/26 00:06:33;;;;;;;;;;;;;;;;;;5070773;28;19958;-63
2022/12/26 00:08:58;;;;;;;;;;;;;;;;;;5068090;28;19923;-63
2022/12/26 00:11:23;;;;;;;;;;;;;;;;;;5103980;28;19909;-63
2022/12/26 00:13:48;;;;;;;;;;;;;;;;;;5072097;28;20077;-63
2022/12/26 00:16:14;;;;;;;;;;;;;;;;;;5067588;28;19978;-63
2022/12/26 00:18:39;;;;;;;;;;;;;;;;;;5102697;28;19912;-63
2022/12/26 00:21:04;;;;;;;;;;;;;;;;;;5074371;28;19917;-64
2022/12/26 00:23:29;;;;;;;;;;;;;;;;;;5067241;28;19916;-64
2022/12/26 00:25:54;;;;;;;;;;;;;;;;;;5072219;28;19912;-63
2022/12/26 00:28:19;;;;;;;;;;;;;;;;;;5066449;28;19916;-63
2022/12/26 00:30:44;;;;;;;;;;;;;;;;;;5072017;28;19927;-63
2022/12/26 00:33:10;;;;;;;;;;;;;;;;;;5068438;28;20377;-63
2022/12/26 00:35:35;;;;;;;;;;;;;;;;;;5070302;28;19912;-64
2022/12/26 00:38:00;;;;;;;;;;;;;;;;;;5071373;28;20273;-64
2022/12/26 00:40:25;;;;;;;;;;;;;;;;;;5103540;28;19920;-63
2022/12/26 00:42:50;;;;;;;;;;;;;;;;;;5070126;28;20372;-63
2022/12/26 00:45:15;;;;;;;;;;;;;;;;;;5068904;28;19943;-64
2022/12/26 00:47:40;;;;;;;;;;;;;;;;;;5070581;28;19923;-63
2022/12/26 00:50:05;;;;;;;;;;;;;;;;;;5074146;28;19917;-63
2022/12/26 00:52:31;;;;;;;;;;;;;;;;;;5073641;28;19912;-64
2022/12/26 00:54:56;;;;;;;;;;;;;;;;;;5071942;28;20357;-63
2022/12/26 00:57:21;;;;;;;;;;;;;;;;;;5073637;28;19912;-63
2022/12/26 00:59:46;;;;;;;;;;;;;;;;;;5073450;28;19919;-63
2022/12/26 01:04:55;;;;;;;;;;;;;;;;;;5076549;28;19919;-63
2022/12/26 01:07:20;;;;;;;;;;;;;;;;;;5104798;27;19920;-63
2022/12/26 01:09:45;;;;;;;;;;;;;;;;;;5073815;28;19958;-63
2022/12/26 01:12:10;;;;;;;;;;;;;;;;;;5073689;28;19991;-63
2022/12/26 01:14:36;;;;;;;;;;;;;;;;;;5070034;28;19912;-63
2022/12/26 01:17:01;;;;;;;;;;;;;;;;;;5106662;27;20548;-63
2022/12/26 01:19:26;;;;;;;;;;;;;;;;;;5074347;28;20072;-63
2022/12/26 01:21:51;;;;;;;;;;;;;;;;;;5072306;28;19924;-63
2022/12/26 01:24:16;;;;;;;;;;;;;;;;;;5068543;28;20395;-63
2022/12/26 01:26:41;;;;;;;;;;;;;;;;;;5106348;28;20373;-63
2022/12/26 01:29:06;;;;;;;;;;;;;;;;;;5070928;28;20011;-63
2022/12/26 01:31:32;;;;;;;;;;;;;;;;;;5065223;28;20304;-63
2022/12/26 01:33:57;;;;;;;;;;;;;;;;;;5072847;28;20373;-63
2022/12/26 01:36:22;;;;;;;;;;;;;;;;;;5073571;28;20470;-63
2022/12/26 01:38:47;;;;;;;;;;;;;;;;;;5072508;28;19912;-63
2022/12/26 01:41:15;;;;;;;;;;;;;;;;;;5066905;28;19912;-63
2022/12/26 01:43:40;;;;;;;;;;;;;;;;;;5067999;28;19918;-63
2022/12/26 01:46:05;;;;;;;;;;;;;;;;;;5069020;28;20398;-63
2022/12/26 01:48:33;;;;;;;;;;;;;;;;;;5087192;28;19927;-63
2022/12/26 01:50:58;;;;;;;;;;;;;;;;;;5076125;28;19912;-64
2022/12/26 01:53:23;;;;;;;;;;;;;;;;;;5071546;28;19916;-63
2022/12/26 01:55:48;;;;;;;;;;;;;;;;;;5067411;28;19912;-63
2022/12/26 01:58:13;;;;;;;;;;;;;;;;;;5080381;28;19916;-63
2022/12/26 02:00:39;;;;;;;;;;;;;;;;;;5094534;28;19908;-63
2022/12/26 02:05:47;;;;;;;;;;;;;;;;;;5069747;28;19966;-63
2022/12/26 02:08:12;;;;;;;;;;;;;;;;;;5072002;28;19917;-63
2022/12/26 02:10:38;;;;;;;;;;;;;;;;;;5071597;28;19919;-63
2022/12/26 02:13:03;;;;;;;;;;;;;;;;;;5069766;28;19920;-64
2022/12/26 02:15:28;;;;;;;;;;;;;;;;;;5064946;28;19913;-63
2022/12/26 02:17:53;;;;;;;;;;;;;;;;;;5073459;28;20003;-63
2022/12/26 02:20:18;;;;;;;;;;;;;;;;;;5071372;28;20276;-63
2022/12/26 02:22:43;;;;;;;;;;;;;;;;;;5074517;28;20258;-63
2022/12/26 02:25:08;;;;;;;;;;;;;;;;;;5068620;28;19916;-63
2022/12/26 02:27:33;;;;;;;;;;;;;;;;;;5072327;28;19923;-64
2022/12/26 02:29:59;;;;;;;;;;;;;;;;;;5071373;28;20284;-64
2022/12/26 02:32:24;;;;;;;;;;;;;;;;;;5074619;28;20010;-64
2022/12/26 02:34:49;;;;;;;;;;;;;;;;;;5074146;28;19923;-64
2022/12/26 02:37:14;;;;;;;;;;;;;;;;;;5069994;28;19917;-64
2022/12/26 02:39:39;;;;;;;;;;;;;;;;;;5101438;27;19912;-64
2022/12/26 02:42:04;;;;;;;;;;;;;;;;;;5104425;28;19958;-64
2022/12/26 02:47:13;;;;;;;;;;;;;;;;;;5065497;28;19961;-64
2022/12/26 03:13:09;;;;;;;;;;;;;;;;;;5069219;28;20003;-64
2022/12/26 03:14:15;;;;;;;;;;;;;;;;;;5070830;28;19919;-64
2022/12/26 03:19:24;;;;;;;;;;;;;;;;;;5067789;28;19970;-64
2022/12/26 03:21:49;;;;;;;;;;;;;;;;;;5063563;28;20011;-63
2022/12/26 03:24:15;;;;;;;;;;;;;;;;;;5105563;27;19925;-64
2022/12/26 03:26:40;;;;;;;;;;;;;;;;;;5060448;28;19959;-64
2022/12/26 03:31:49;;;;;;;;;;;;;;;;;;5071195;28;19919;-64
2022/12/26 03:34:17;;;;;;;;;;;;;;;;;;5072713;28;19913;-64
2022/12/26 03:36:42;;;;;;;;;;;;;;;;;;5065502;28;19917;-64
2022/12/26 03:39:07;;;;;;;;;;;;;;;;;;5070646;28;19912;-64
2022/12/26 04:19:47;;;;;;;;;;;;;;;;;;5067619;28;20375;-64
2022/12/26 04:44:10;;;;;;;;;;;;;;;;;;5076254;28;20426;-64
2022/12/26 04:46:35;;;;;;;;;;;;;;;;;;5070222;28;19919;-64
2022/12/26 04:51:45;;;;;;;;;;;;;;;;;;5074714;28;19922;-63
2022/12/26 04:54:10;;;;;;;;;;;;;;;;;;5073039;28;20335;-64
2022/12/26 04:56:35;;;;;;;;;;;;;;;;;;5074129;28;20364;-64
2022/12/26 04:59:00;;;;;;;;;;;;;;;;;;5079137;28;19978;-64
2022/12/26 05:09:38;;;;;;;;;;;;;;;;;;5072160;28;19955;-64
2022/12/26 05:12:03;;;;;;;;;;;;;;;;;;5073781;28;20030;-64
2022/12/26 05:14:30;;;;;;;;;;;;;;;;;;5108854;27;20010;-64
2022/12/26 05:30:35;;;;;;;;;;;;;;;;;;5067174;28;20351;-64
2022/12/26 05:35:44;;;;;;;;;;;;;;;;;;5073889;28;20421;-63
2022/12/26 05:38:09;;;;;;;;;;;;;;;;;;5072560;28;19912;-63
2022/12/26 05:40:34;;;;;;;;;;;;;;;;;;5072338;28;19912;-63
2022/12/26 05:42:59;;;;;;;;;;;;;;;;;;5074500;28;19934;-63
2022/12/26 05:45:25;;;;;;;;;;;;;;;;;;5103553;27;20322;-63
2022/12/26 05:47:50;;;;;;;;;;;;;;;;;;5074725;28;20380;-63
2022/12/26 05:50:15;;;;;;;;;;;;;;;;;;5104566;27;20387;-63
2022/12/26 05:52:40;;;;;;;;;;;;;;;;;;5104685;28;19920;-63
2022/12/26 05:55:05;;;;;;;;;;;;;;;;;;5105097;28;19916;-64
2022/12/26 05:57:31;;;;;;;;;;;;;;;;;;5105015;27;19959;-63
2022/12/26 05:59:56;;;;;;;;;;;;;;;;;;5108583;27;19920;-63
2022/12/26 06:02:21;;;;;;;;;;;;;;;;;;5073338;28;19938;-64
2022/12/26 06:04:47;;;;;;;;;;;;;;;;;;5106974;27;19974;-64
2022/12/26 06:07:12;;;;;;;;;;;;;;;;;;5072713;28;19917;-63
2022/12/26 06:09:37;;;;;;;;;;;;;;;;;;5090175;28;19966;-63
2022/12/26 06:12:02;;;;;;;;;;;;;;;;;;5058184;28;19920;-63
2022/12/26 06:14:27;;;;;;;;;;;;;;;;;;5067856;28;20536;-63
2022/12/26 06:16:52;;;;;;;;;;;;;;;;;;5063136;28;20444;-63
2022/12/26 06:19:17;;;;;;;;;;;;;;;;;;5071081;28;19912;-63
2022/12/26 06:21:42;;;;;;;;;;;;;;;;;;5072285;28;19934;-63
2022/12/26 06:24:08;;;;;;;;;;;;;;;;;;5098076;28;19912;-63
2022/12/26 06:26:33;;;;;;;;;;;;;;;;;;5071894;28;20281;-63
2022/12/26 06:28:58;;;;;;;;;;;;;;;;;;5073064;28;19921;-63
2022/12/26 06:31:23;;;;;;;;;;;;;;;;;;5058359;28;19913;-63
2022/12/26 06:33:48;;;;;;;;;;;;;;;;;;5092125;28;19966;-63
2022/12/26 06:36:13;;;;;;;;;;;;;;;;;;5075580;28;19991;-63
2022/12/26 06:38:39;;;;;;;;;;;;;;;;;;5072529;28;19913;-63
2022/12/26 06:41:04;;;;;;;;;;;;;;;;;;5072164;28;19912;-63
2022/12/26 06:43:29;;;;;;;;;;;;;;;;;;5104613;27;19990;-63
2022/12/26 06:45:54;;;;;;;;;;;;;;;;;;5067775;28;19916;-63
2022/12/26 06:48:19;;;;;;;;;;;;;;;;;;5068991;28;19920;-63
2022/12/26 06:50:45;;;;;;;;;;;;;;;;;;5069069;28;19931;-63
2022/12/26 06:53:10;;;;;;;;;;;;;;;;;;5076251;28;19959;-63
2022/12/26 06:55:35;;;;;;;;;;;;;;;;;;5104197;28;20052;-66
2022/12/26 06:58:00;;;;;;;;;;;;;;;;;;5073949;28;19913;-69
2022/12/26 07:00:25;;;;;;;;;;;;;;;;;;5104120;27;19912;-68
2022/12/26 07:02:51;;;;;;;;;;;;;;;;;;5071613;28;20398;-68
2022/12/26 07:05:16;;;;;;;;;;;;;;;;;;5072177;28;19916;-67
2022/12/26 07:07:41;;;;;;;;;;;;;;;;;;5070864;28;19985;-63
2022/12/26 07:10:06;;;;;;;;;;;;;;;;;;5071246;28;20414;-63
2022/12/26 07:12:31;;;;;;;;;;;;;;;;;;5070908;28;19917;-63
2022/12/26 07:14:57;;;;;;;;;;;;;;;;;;5053668;28;19927;-63
2022/12/26 07:17:22;;;;;;;;;;;;;;;;;;5070415;28;19919;-63
2022/12/26 07:19:47;;;;;;;;;;;;;;;;;;5070180;28;19908;-62
2022/12/26 07:22:12;;;;;;;;;;;;;;;;;;5070920;28;19981;-63
2022/12/26 07:24:37;;;;;;;;;;;;;;;;;;5060743;28;20404;-67
2022/12/26 07:27:03;;;;;;;;;;;;;;;;;;5074603;28;20361;-63
2022/12/26 07:29:28;;;;;;;;;;;;;;;;;;5076865;28;20415;-70
2022/12/26 07:31:53;;;;;;;;;;;;;;;;;;5070211;28;19912;-63
2022/12/26 07:34:18;;;;;;;;;;;;;;;;;;5064291;28;20104;-63
2022/12/26 07:36:43;;;;;;;;;;;;;;;;;;5066960;28;19919;-63
2022/12/26 07:39:08;;;;;;;;;;;;;;;;;;5062390;28;19913;-63
2022/12/26 07:44:17;;;;;;;;;;;;;;;;;;5060721;28;20425;-62
2022/12/26 07:46:45;;;;;;;;;;;;;;;;;;5066151;28;19921;-63
2022/12/26 07:49:11;;;;;;;;;;;;;;;;;;5100835;28;19912;-63
2022/12/26 07:51:36;;;;;;;;;;;;;;;;;;5096491;28;20433;-63
2022/12/26 07:54:01;;;;;;;;;;;;;;;;;;5098383;28;19959;-63
2022/12/26 07:56:26;;;;;;;;;;;;;;;;;;5069560;28;19920;-63
2022/12/26 07:58:54;;;;;;;;;;;;;;;;;;5067625;28;19969;-63
2022/12/26 08:01:19;;;;;;;;;;;;;;;;;;5094337;28;19912;-63
2022/12/26 08:03:45;;;;;;;;;;;;;;;;;;5067731;28;20280;-63
2022/12/26 08:06:10;;;;;;;;;;;;;;;;;;5069429;28;20441;-62
2022/12/26 08:08:36;;;;;;;;;;;;;;;;;;5066191;28;19943;-63
2022/12/26 08:11:01;;;;;;;;;;;;;;;;;;5068409;28;19986;-63
2022/12/26 08:13:26;;;;;;;;;;;;;;;;;;5068967;28;19978;-61
2022/12/26 08:15:51;;;;;;;;;;;;;;;;;;5065215;28;20280;-63
2022/12/26 08:18:16;;;;;;;;;;;;;;;;;;5066678;28;20351;-63
2022/12/26 08:20:42;;;;;;;;;;;;;;;;;;5059835;28;20262;-63
2022/12/26 08:23:07;;;;;;;;;;;;;;;;;;5068426;28;20384;-63
2022/12/26 08:25:32;;;;;;;;;;;;;;;;;;5071450;28;20384;-63
2022/12/26 08:27:57;;;;;;;;;;;;;;;;;;5080956;28;19970;-63
2022/12/26 08:30:22;;;;;;;;;;;;;;;;;;5098068;28;19928;-63
2022/12/26 08:32:47;;;;;;;;;;;;;;;;;;5067102;28;19912;-63
2022/12/26 08:35:12;;;;;;;;;;;;;;;;;;5072181;28;19908;-63
2022/12/26 08:37:38;;;;;;;;;;;;;;;;;;5068689;28;20262;-63
2022/12/26 08:40:03;;;;;;;;;;;;;;;;;;5098323;28;20386;-63
2022/12/26 08:42:28;;;;;;;;;;;;;;;;;;5067904;28;19920;-63
2022/12/26 08:44:53;;;;;;;;;;;;;;;;;;5065840;28;19974;-63
2022/12/26 08:47:18;;;;;;;;;;;;;;;;;;5066677;28;20380;-63
2022/12/26 08:49:43;;;;;;;;;;;;;;;;;;5068490;28;19942;-63
2022/12/26 08:52:08;;;;;;;;;;;;;;;;;;5069256;28;20296;-63
2022/12/26 08:54:33;;;;;;;;;;;;;;;;;;5069255;28;20023;-63
2022/12/26 08:56:58;;;;;;;;;;;;;;;;;;5101119;28;21530;-63
2022/12/26 08:59:24;;;;;;;;;;;;;;;;;;5060649;28;19935;-63
2022/12/26 09:01:49;;;;;;;;;;;;;;;;;;5068666;28;19919;-63
2022/12/26 09:04:14;;;;;;;;;;;;;;;;;;5068820;28;19966;-63
2022/12/26 09:06:39;;;;;;;;;;;;;;;;;;5102755;28;19954;-63
2022/12/26 09:09:05;;;;;;;;;;;;;;;;;;5087373;28;19919;-63
2022/12/26 09:11:30;;;;;;;;;;;;;;;;;;5077509;28;19913;-64
2022/12/26 09:13:55;;;;;;;;;;;;;;;;;;5065989;28;20436;-63
2022/12/26 09:16:20;;;;;;;;;;;;;;;;;;5066907;28;19967;-63
2022/12/26 09:18:45;;;;;;;;;;;;;;;;;;5072888;28;20272;-63
2022/12/26 09:21:11;;;;;;;;;;;;;;;;;;5081890;28;19912;-63
2022/12/26 09:23:36;;;;;;;;;;;;;;;;;;5075784;28;20353;-64
2022/12/26 09:26:01;;;;;;;;;;;;;;;;;;5077301;28;19918;-64
2022/12/26 09:28:26;;;;;;;;;;;;;;;;;;5074983;28;19929;-63
2022/12/26 09:30:51;;;;;;;;;;;;;;;;;;5075513;28;19956;-63
2022/12/26 09:33:16;;;;;;;;;;;;;;;;;;5108528;27;19913;-63
2022/12/26 09:35:42;;;;;;;;;;;;;;;;;;5073863;28;19916;-64
2022/12/26 09:38:07;;;;;;;;;;;;;;;;;;5072449;28;19952;-63
2022/12/26 09:40:32;;;;;;;;;;;;;;;;;;5071274;28;19957;-63
2022/12/26 09:42:57;;;;;;;;;;;;;;;;;;5073003;28;19912;-63
2022/12/26 09:45:22;;;;;;;;;;;;;;;;;;5068888;28;19919;-64
2022/12/26 09:47:47;;;;;;;;;;;;;;;;;;5072687;28;19960;-64
2022/12/26 09:50:12;;;;;;;;;;;;;;;;;;5072758;28;19920;-64
2022/12/26 09:52:38;;;;;;;;;;;;;;;;;;5068243;28;20230;-63
2022/12/26 09:55:03;;;;;;;;;;;;;;;;;;5060461;28;19909;-63
2022/12/26 09:57:28;;;;;;;;;;;;;;;;;;5068708;28;20415;-64
2022/12/26 09:59:53;;;;;;;;;;;;;;;;;;5070864;28;19927;-63
2022/12/26 10:02:18;;;;;;;;;;;;;;;;;;5099021;28;19920;-63
2022/12/26 10:04:43;;;;;;;;;;;;;;;;;;5086488;28;19919;-63
2022/12/26 10:07:08;;;;;;;;;;;;;;;;;;5058855;28;20280;-63
2022/12/26 10:09:33;;;;;;;;;;;;;;;;;;5070980;28;20326;-63
2022/12/26 10:11:59;;;;;;;;;;;;;;;;;;5063729;28;20361;-63
2022/12/26 10:14:24;;;;;;;;;;;;;;;;;;5071980;28;20383;-63
2022/12/26 10:16:49;;;;;;;;;;;;;;;;;;5069949;28;20316;-63
2022/12/26 10:19:14;;;;;;;;;;;;;;;;;;5067558;28;20280;-64
2022/12/26 10:21:39;;;;;;;;;;;;;;;;;;5071354;28;19966;-63
2022/12/26 10:24:04;;;;;;;;;;;;;;;;;;5064787;28;19965;-63
2022/12/26 10:26:29;;;;;;;;;;;;;;;;;;5102843;28;20326;-63
2022/12/26 10:28:55;;;;;;;;;;;;;;;;;;5065326;28;20391;-63
2022/12/26 10:31:20;;;;;;;;;;;;;;;;;;5097045;28;19919;-63
2022/12/26 10:33:45;;;;;;;;;;;;;;;;;;5104722;28;19913;-63
2022/12/26 10:36:12;;;;;;;;;;;;;;;;;;5071348;28;19912;-63
2022/12/26 10:38:37;;;;;;;;;;;;;;;;;;5070173;28;20384;-63
2022/12/26 10:41:03;;;;;;;;;;;;;;;;;;5071747;28;20003;-63
2022/12/26 10:43:28;;;;;;;;;;;;;;;;;;5104136;28;19908;-63
2022/12/26 10:45:53;;;;;;;;;;;;;;;;;;5063998;28;19926;-63
2022/12/26 10:48:18;;;;;;;;;;;;;;;;;;5069292;28;19947;-63
2022/12/26 10:50:43;;;;;;;;;;;;;;;;;;5096949;27;19912;-63
2022/12/26 10:53:08;;;;;;;;;;;;;;;;;;5105923;27;19943;-63
2022/12/26 10:55:34;;;;;;;;;;;;;;;;;;5072184;28;20355;-63
2022/12/26 10:57:59;;;;;;;;;;;;;;;;;;5071406;28;20281;-63
2022/12/26 11:00:24;;;;;;;;;;;;;;;;;;5069517;28;20361;-63
2022/12/26 11:02:49;;;;;;;;;;;;;;;;;;5064472;28;20429;-63
2022/12/26 11:05:14;;;;;;;;;;;;;;;;;;5070007;28;19963;-63
2022/12/26 11:07:39;;;;;;;;;;;;;;;;;;5072643;28;20309;-63
2022/12/26 11:10:04;;;;;;;;;;;;;;;;;;5068784;28;19917;-63
2022/12/26 11:12:29;;;;;;;;;;;;;;;;;;5078826;28;19913;-63
2022/12/26 11:14:55;;;;;;;;;;;;;;;;;;5065552;28;20749;-63
2022/12/26 11:17:20;;;;;;;;;;;;;;;;;;5092101;28;20032;-63
2022/12/26 11:19:45;;;;;;;;;;;;;;;;;;5086173;28;19917;-63
2022/12/26 11:22:10;;;;;;;;;;;;;;;;;;5102573;28;20424;-63
2022/12/26 11:24:36;;;;;;;;;;;;;;;;;;5088719;28;19912;-63
2022/12/26 11:27:01;;;;;;;;;;;;;;;;;;5068587;28;20280;-63
2022/12/26 11:29:26;;;;;;;;;;;;;;;;;;5067717;28;19928;-63
2022/12/26 11:31:51;;;;;;;;;;;;;;;;;;5071245;28;20030;-63
2022/12/26 11:34:16;;;;;;;;;;;;;;;;;;5087732;28;19920;-63
2022/12/26 11:36:41;;;;;;;;;;;;;;;;;;5103621;28;20333;-63
2022/12/26 11:39:06;;;;;;;;;;;;;;;;;;5104133;28;19963;-63
2022/12/26 11:41:32;;;;;;;;;;;;;;;;;;5072441;28;19913;-63
2022/12/26 11:43:57;;;;;;;;;;;;;;;;;;5072236;28;19912;-63
2022/12/26 11:46:22;;;;;;;;;;;;;;;;;;5067860;28;19916;-63
2022/12/26 11:48:47;;;;;;;;;;;;;;;;;;5071676;28;19955;-63
2022/12/26 11:51:13;;;;;;;;;;;;;;;;;;5070059;28;19912;-63
2022/12/26 11:53:38;;;;;;;;;;;;;;;;;;5072953;28;19958;-64
2022/12/26 11:56:03;;;;;;;;;;;;;;;;;;5088602;28;20002;-64
2022/12/26 11:58:28;;;;;;;;;;;;;;;;;;5077668;28;20249;-63
2022/12/26 12:00:54;;;;;;;;;;;;;;;;;;5092164;28;20381;-63
2022/12/26 12:03:19;;;;;;;;;;;;;;;;;;5074054;28;19958;-63
2022/12/26 12:05:44;;;;;;;;;;;;;;;;;;5080701;28;19955;-63
2022/12/26 12:08:09;;;;;;;;;;;;;;;;;;5104342;28;19920;-63
2022/12/26 12:10:34;;;;;;;;;;;;;;;;;;5072115;28;20117;-63
2022/12/26 12:13:00;;;;;;;;;;;;;;;;;;5070493;28;20327;-63
2022/12/26 12:15:25;;;;;;;;;;;;;;;;;;5064183;28;20313;-63
2022/12/26 12:17:50;;;;;;;;;;;;;;;;;;5085425;28;20285;-64
2022/12/26 12:20:15;;;;;;;;;;;;;;;;;;5067304;28;20003;-63
2022/12/26 12:22:42;;;;;;;;;;;;;;;;;;5070420;28;19971;-63
2022/12/26 12:25:07;;;;;;;;;;;;;;;;;;5069392;28;19943;-63
2022/12/26 12:27:32;;;;;;;;;;;;;;;;;;5068649;28;20303;-63
2022/12/26 12:29:58;;;;;;;;;;;;;;;;;;5091558;28;19927;-64
2022/12/26 12:32:23;;;;;;;;;;;;;;;;;;5063182;28;20026;-64
2022/12/26 12:34:48;;;;;;;;;;;;;;;;;;5069399;28;19913;-64
2022/12/26 12:37:13;;;;;;;;;;;;;;;;;;5071219;28;19916;-64
2022/12/26 12:39:38;;;;;;;;;;;;;;;;;;5068864;28;19919;-64
2022/12/26 12:42:03;;;;;;;;;;;;;;;;;;5071463;28;20659;-62
2022/12/26 12:44:28;;;;;;;;;;;;;;;;;;5072843;28;20381;-64
2022/12/26 12:46:54;;;;;;;;;;;;;;;;;;5070691;28;19931;-62
2022/12/26 12:49:19;;;;;;;;;;;;;;;;;;5071853;28;19913;-64
2022/12/26 12:51:44;;;;;;;;;;;;;;;;;;5090771;28;19912;-64
2022/12/26 12:54:09;;;;;;;;;;;;;;;;;;5074464;28;20007;-65
2022/12/26 12:56:34;;;;;;;;;;;;;;;;;;5080879;28;19914;-65
2022/12/26 12:58:59;;;;;;;;;;;;;;;;;;5079083;28;19912;-62
2022/12/26 13:01:24;;;;;;;;;;;;;;;;;;5074659;28;19962;-62
2022/12/26 13:03:50;;;;;;;;;;;;;;;;;;5073291;28;20326;-63
2022/12/26 13:06:15;;;;;;;;;;;;;;;;;;5074698;28;20258;-62
2022/12/26 13:08:40;;;;;;;;;;;;;;;;;;5074829;28;19954;-62
2022/12/26 13:11:05;;;;;;;;;;;;;;;;;;5071451;28;20142;-62
2022/12/26 13:13:30;;;;;;;;;;;;;;;;;;5108466;28;19908;-62
2022/12/26 13:15:55;;;;;;;;;;;;;;;;;;5103875;27;20294;-62
2022/12/26 13:18:21;;;;;;;;;;;;;;;;;;5080368;28;20322;-63
2022/12/26 13:20:46;;;;;;;;;;;;;;;;;;5070597;28;19919;-63
2022/12/26 13:25:55;;;;;;;;;;;;;;;;;;5075774;28;19942;-63
2022/12/26 13:28:21;;;;;;;;;;;;;;;;;;5072544;28;20331;-62
2022/12/26 13:30:46;;;;;;;;;;;;;;;;;;5066015;28;20270;-62
2022/12/26 13:33:11;;;;;;;;;;;;;;;;;;5075019;28;19959;-63
2022/12/26 13:35:36;;;;;;;;;;;;;;;;;;5090946;28;19912;-63
2022/12/26 13:38:01;;;;;;;;;;;;;;;;;;5101754;28;19973;-63
2022/12/26 13:40:26;;;;;;;;;;;;;;;;;;5074152;28;20107;-63
2022/12/26 13:45:35;;;;;;;;;;;;;;;;;;5078508;28;20300;-63
2022/12/26 13:48:01;;;;;;;;;;;;;;;;;;5073880;28;19916;-63
2022/12/26 13:50:26;;;;;;;;;;;;;;;;;;5072533;28;19917;-63
2022/12/26 13:52:52;;;;;;;;;;;;;;;;;;5071043;28;19912;-62
2022/12/26 13:55:17;;;;;;;;;;;;;;;;;;5075451;28;19918;-63
2022/12/26 13:57:43;;;;;;;;;;;;;;;;;;5092641;28;19957;-63
2022/12/26 14:00:08;;;;;;;;;;;;;;;;;;5077072;28;19912;-63
2022/12/26 14:02:33;;;;;;;;;;;;;;;;;;5073852;28;20010;-63
2022/12/26 14:04:59;;;;;;;;;;;;;;;;;;5072969;28;20396;-63
2022/12/26 14:07:24;;;;;;;;;;;;;;;;;;5073329;28;20486;-63
2022/12/26 14:09:49;;;;;;;;;;;;;;;;;;5082512;28;20407;-63
2022/12/26 14:12:14;;;;;;;;;;;;;;;;;;5091357;28;19912;-63
2022/12/26 14:14:39;;;;;;;;;;;;;;;;;;5103114;28;20335;-63
2022/12/26 14:17:04;;;;;;;;;;;;;;;;;;5072810;28;19912;-63
2022/12/26 14:19:29;;;;;;;;;;;;;;;;;;5073464;28;19913;-63
2022/12/26 14:21:55;;;;;;;;;;;;;;;;;;5073154;28;20385;-63
2022/12/26 14:24:20;;;;;;;;;;;;;;;;;;5073037;28;19958;-64
2022/12/26 14:26:45;;;;;;;;;;;;;;;;;;5072811;28;19916;-63
2022/12/26 14:29:10;;;;;;;;;;;;;;;;;;5072182;28;19924;-63
2022/12/26 14:31:35;;;;;;;;;;;;;;;;;;5103248;28;20003;-64
2022/12/26 14:34:00;;;;;;;;;;;;;;;;;;5085562;28;19920;-64
2022/12/26 14:36:27;;;;;;;;;;;;;;;;;;5070422;28;20118;-64
2022/12/26 14:38:52;;;;;;;;;;;;;;;;;;5105981;28;19912;-63
2022/12/26 14:44:02;;;;;;;;;;;;;;;;;;5071478;28;20332;-63
2022/12/26 14:46:27;;;;;;;;;;;;;;;;;;5102102;28;20369;-64
2022/12/26 14:48:52;;;;;;;;;;;;;;;;;;5073781;28;19920;-64
2022/12/26 14:51:17;;;;;;;;;;;;;;;;;;5071196;28;19913;-64
2022/12/26 14:53:42;;;;;;;;;;;;;;;;;;5072733;28;20355;-64
2022/12/26 14:56:09;;;;;;;;;;;;;;;;;;5071785;28;20361;-64
2022/12/26 14:58:34;;;;;;;;;;;;;;;;;;5084258;28;19998;-64
2022/12/26 15:00:59;;;;;;;;;;;;;;;;;;5071837;28;19916;-64
2022/12/26 15:03:24;;;;;;;;;;;;;;;;;;5103881;28;19958;-64
2022/12/26 15:05:50;;;;;;;;;;;;;;;;;;5071768;28;19956;-64
2022/12/26 15:08:15;;;;;;;;;;;;;;;;;;5103506;28;20403;-64
2022/12/26 15:10:40;;;;;;;;;;;;;;;;;;5100381;27;20330;-64
2022/12/26 15:13:05;;;;;;;;;;;;;;;;;;5077427;28;20430;-64
2022/12/26 15:15:30;;;;;;;;;;;;;;;;;;5100963;27;20019;-64
2022/12/26 15:17:56;;;;;;;;;;;;;;;;;;5058010;28;19924;-64
2022/12/26 15:20:21;;;;;;;;;;;;;;;;;;5070870;28;19916;-63
2022/12/26 15:22:46;;;;;;;;;;;;;;;;;;5072797;28;20376;-64
2022/12/26 15:25:11;;;;;;;;;;;;;;;;;;5101046;28;19960;-64
2022/12/26 15:27:36;;;;;;;;;;;;;;;;;;5071541;28;20361;-64
2022/12/26 15:30:01;;;;;;;;;;;;;;;;;;5071436;28;19928;-63
2022/12/26 15:32:26;;;;;;;;;;;;;;;;;;5105033;28;19914;-64
2022/12/26 15:34:52;;;;;;;;;;;;;;;;;;5067865;28;19920;-63
2022/12/26 15:37:17;;;;;;;;;;;;;;;;;;5085042;28;19915;-63
2022/12/26 15:39:42;;;;;;;;;;;;;;;;;;5066836;28;20369;-63
2022/12/26 15:42:07;;;;;;;;;;;;;;;;;;5100003;28;19920;-63
2022/12/26 15:44:32;;;;;;;;;;;;;;;;;;5069190;28;19920;-64
2022/12/26 15:46:57;;;;;;;;;;;;;;;;;;5078886;28;19954;-63
2022/12/26 15:49:22;;;;;;;;;;;;;;;;;;5089427;28;20403;-64
2022/12/26 15:51:48;;;;;;;;;;;;;;;;;;5070980;28;19913;-63
2022/12/26 15:54:13;;;;;;;;;;;;;;;;;;5099939;27;19935;-63
2022/12/26 15:56:38;;;;;;;;;;;;;;;;;;5066109;28;20261;-63
2022/12/26 15:59:03;;;;;;;;;;;;;;;;;;5071898;28;19967;-63
2022/12/26 16:01:28;;;;;;;;;;;;;;;;;;5067914;28;19912;-63
2022/12/26 16:03:53;;;;;;;;;;;;;;;;;;5071248;28;19915;-63
2022/12/26 16:06:18;;;;;;;;;;;;;;;;;;5069845;28;20019;-63
2022/12/26 16:08:43;;;;;;;;;;;;;;;;;;5064710;28;19939;-62
2022/12/26 16:11:09;;;;;;;;;;;;;;;;;;5062752;28;19912;-62
2022/12/26 16:13:34;;;;;;;;;;;;;;;;;;5070912;28;19912;-62
2022/12/26 16:15:59;;;;;;;;;;;;;;;;;;5065485;28;19920;-63
2022/12/26 16:18:24;;;;;;;;;;;;;;;;;;5068398;28;19925;-63
2022/12/26 16:23:33;;;;;;;;;;;;;;;;;;5065604;28;19946;-62
2022/12/26 16:25:59;;;;;;;;;;;;;;;;;;5065373;28;19913;-63
2022/12/26 16:28:24;;;;;;;;;;;;;;;;;;5069378;28;20540;-63
2022/12/26 16:30:49;;;;;;;;;;;;;;;;;;5074588;28;19970;-63
2022/12/26 16:33:14;;;;;;;;;;;;;;;;;;5063862;28;19912;-62
2022/12/26 16:35:40;;;;;;;;;;;;;;;;;;5069699;28;19979;-63
2022/12/26 16:38:06;;;;;;;;;;;;;;;;;;5106346;28;19955;-63
2022/12/26 16:40:31;;;;;;;;;;;;;;;;;;5075731;28;19962;-63
2022/12/26 16:42:56;;;;;;;;;;;;;;;;;;5075430;28;19908;-63
2022/12/26 16:45:21;;;;;;;;;;;;;;;;;;5071350;28;20353;-63
2022/12/26 16:47:46;;;;;;;;;;;;;;;;;;5100534;28;19912;-63
2022/12/26 16:50:11;;;;;;;;;;;;;;;;;;5075648;28;19958;-63
2022/12/26 16:52:36;;;;;;;;;;;;;;;;;;5061298;28;19917;-63
2022/12/26 16:55:02;;;;;;;;;;;;;;;;;;5073882;28;19966;-63
2022/12/26 16:57:27;;;;;;;;;;;;;;;;;;5094952;28;19916;-63
2022/12/26 16:59:52;;;;;;;;;;;;;;;;;;5074015;28;19913;-63
2022/12/26 17:02:17;;;;;;;;;;;;;;;;;;5072789;28;19912;-63
2022/12/26 17:04:42;;;;;;;;;;;;;;;;;;5074675;28;19939;-63
2022/12/26 17:07:07;;;;;;;;;;;;;;;;;;5063076;28;19924;-62
2022/12/26 17:09:32;;;;;;;;;;;;;;;;;;5075301;28;19995;-63
2022/12/26 17:11:58;;;;;;;;;;;;;;;;;;5076248;28;20009;-63
2022/12/26 17:14:23;;;;;;;;;;;;;;;;;;5082265;28;19970;-62
2022/12/26 17:16:48;;;;;;;;;;;;;;;;;;5063232;28;19955;-63
2022/12/26 17:19:13;;;;;;;;;;;;;;;;;;5070109;28;19920;-63
2022/12/26 17:21:38;;;;;;;;;;;;;;;;;;5074215;28;20003;-63
2022/12/26 17:24:03;;;;;;;;;;;;;;;;;;5074347;28;20323;-63
2022/12/26 17:26:28;;;;;;;;;;;;;;;;;;5075332;28;20323;-63
2022/12/26 17:28:54;;;;;;;;;;;;;;;;;;5072943;28;19927;-63
2022/12/26 17:31:19;;;;;;;;;;;;;;;;;;5060336;28;20324;-63
2022/12/26 17:33:44;;;;;;;;;;;;;;;;;;5066208;28;20440;-63
2022/12/26 17:36:11;;;;;;;;;;;;;;;;;;5080697;28;19928;-63
2022/12/26 17:38:36;;;;;;;;;;;;;;;;;;5111482;27;19920;-63
2022/12/26 17:41:01;;;;;;;;;;;;;;;;;;5103057;28;19935;-62
2022/12/26 17:43:26;;;;;;;;;;;;;;;;;;5107167;28;19940;-63
2022/12/26 17:45:51;;;;;;;;;;;;;;;;;;5063152;28;19913;-64
2022/12/26 17:48:16;;;;;;;;;;;;;;;;;;5069690;28;20025;-63
2022/12/26 17:50:42;;;;;;;;;;;;;;;;;;5073175;28;19987;-63
2022/12/26 17:53:07;;;;;;;;;;;;;;;;;;5103607;28;20352;-63
2022/12/26 17:55:32;;;;;;;;;;;;;;;;;;5071159;28;19912;-63
2022/12/26 17:57:57;;;;;;;;;;;;;;;;;;5095566;28;19920;-66
2022/12/26 18:00:22;;;;;;;;;;;;;;;;;;5063600;28;20315;-66
2022/12/26 18:02:47;;;;;;;;;;;;;;;;;;5070980;28;20284;-67
2022/12/26 18:05:12;;;;;;;;;;;;;;;;;;5075148;28;19909;-66
2022/12/26 18:07:38;;;;;;;;;;;;;;;;;;5068621;28;19978;-66
2022/12/26 18:10:03;;;;;;;;;;;;;;;;;;5103857;28;19923;-66
2022/12/26 18:12:28;;;;;;;;;;;;;;;;;;5076251;28;19916;-68
2022/12/26 18:14:53;;;;;;;;;;;;;;;;;;5069906;28;19927;-66
2022/12/26 18:17:18;;;;;;;;;;;;;;;;;;5068900;28;19913;-66
2022/12/26 18:19:43;;;;;;;;;;;;;;;;;;5068899;28;19919;-65
2022/12/26 18:22:08;;;;;;;;;;;;;;;;;;5080294;28;19961;-65
2022/12/26 18:24:34;;;;;;;;;;;;;;;;;;5070699;28;19917;-65
2022/12/26 18:26:59;;;;;;;;;;;;;;;;;;5068661;28;19912;-65
2022/12/26 18:29:24;;;;;;;;;;;;;;;;;;5088381;28;19920;-64
2022/12/26 18:31:49;;;;;;;;;;;;;;;;;;5071869;28;20296;-65
2022/12/26 18:34:14;;;;;;;;;;;;;;;;;;5074134;28;19908;-66
2022/12/26 18:36:42;;;;;;;;;;;;;;;;;;5073244;28;19912;-65
2022/12/26 18:39:07;;;;;;;;;;;;;;;;;;5066832;28;19919;-65
2022/12/26 18:41:33;;;;;;;;;;;;;;;;;;5060773;28;19912;-65
2022/12/26 18:43:58;;;;;;;;;;;;;;;;;;5066258;28;20385;-65
2022/12/26 18:46:23;;;;;;;;;;;;;;;;;;5069550;28;19948;-65
2022/12/26 18:48:48;;;;;;;;;;;;;;;;;;5059220;28;19970;-65